sensor_id;sensor_type;location;lat;lon;timestamp;temperature;humidity
22337;DHT22;14992;50.844;4.418;2024-03-22T00:02:22;14.40;99.90
22337;DHT22;14992;50.844;4.418;2024-03-22T00:04:48;14.40;99.90
22337;DHT22;14992;50.844;4.418;2024-03-22T00:07:18;14.50;99.90
22337;DHT22;14992;50.844;4.418;2024-03-22T00:09:45;14.40;99.90
22337;DHT22;14992;50.844;4.418;2024-03-22T00:12:12;14.30;99.90
22337;DHT22;14992;50.844;4.418;2024-03-22T00:14:39;14.30;99.90
22337;DHT22;14992;50.844;4.418;2024-03-22T00:17:07;14.30;99.90
22337;DHT22;14992;50.844;4.418;2024-03-22T00:19:35;14.20;99.90
22337;DHT22;14992;50.844;4.418;2024-03-22T00:22:04;14.30;99.90
22337;DHT22;14992;50.844;4.418;2024-03-22T00:24:32;14.30;99.90
22337;DHT22;14992;50.844;4.418;2024-03-22T00:27:00;14.30;99.90
22337;DHT22;14992;50.844;4.418;2024-03-22T00:29:27;14.20;99.90
22337;DHT22;14992;50.844;4.418;2024-03-22T00:31:55;14.20;99.90
22337;DHT22;14992;50.844;4.418;2024-03-22T00:34:21;14.20;99.90
22337;DHT22;14992;50.844;4.418;2024-03-22T00:36:49;14.20;99.90
22337;DHT22;14992;50.844;4.418;2024-03-22T00:39:17;14.20;99.90
22337;DHT22;14992;50.844;4.418;2024-03-22T00:41:47;14.20;99.90
22337;DHT22;14992;50.844;4.418;2024-03-22T00:44:13;14.20;99.90
22337;DHT22;14992;50.844;4.418;2024-03-22T00:46:41;14.30;99.90
22337;DHT22;14992;50.844;4.418;2024-03-22T00:49:08;14.30;99.90
22337;DHT22;14992;50.844;4.418;2024-03-22T00:51:36;14.20;99.90
22337;DHT22;14992;50.844;4.418;2024-03-22T00:54:02;14.30;99.90
22337;DHT22;14992;50.844;4.418;2024-03-22T00:56:30;14.20;99.90
22337;DHT22;14992;50.844;4.418;2024-03-22T00:58:58;14.20;99.90
22337;DHT22;14992;50.844;4.418;2024-03-22T01:01:26;14.30;99.90
22337;DHT22;14992;50.844;4.418;2024-03-22T01:03:53;14.20;99.90
22337;DHT22;14992;50.844;4.418;2024-03-22T01:06:21;14.20;99.90
22337;DHT22;14992;50.844;4.418;2024-03-22T01:08:51;14.10;99.90
22337;DHT22;14992;50.844;4.418;2024-03-22T01:11:19;14.00;99.90
22337;DHT22;14992;50.844;4.418;2024-03-22T01:13:46;14.00;99.90
22337;DHT22;14992;50.844;4.418;2024-03-22T01:16:15;13.90;99.90
22337;DHT22;14992;50.844;4.418;2024-03-22T01:18:41;13.80;99.90
22337;DHT22;14992;50.844;4.418;2024-03-22T01:21:09;13.70;99.90
22337;DHT22;14992;50.844;4.418;2024-03-22T01:23:36;13.60;99.90
22337;DHT22;14992;50.844;4.418;2024-03-22T01:26:04;13.50;99.90
22337;DHT22;14992;50.844;4.418;2024-03-22T01:28:31;13.50;99.90
22337;DHT22;14992;50.844;4.418;2024-03-22T01:30:58;13.50;99.90
22337;DHT22;14992;50.844;4.418;2024-03-22T01:33:26;13.50;99.90
22337;DHT22;14992;50.844;4.418;2024-03-22T01:35:54;13.50;99.90
22337;DHT22;14992;50.844;4.418;2024-03-22T01:38:21;13.40;99.90
22337;DHT22;14992;50.844;4.418;2024-03-22T01:40:49;13.30;99.90
22337;DHT22;14992;50.844;4.418;2024-03-22T01:43:16;13.30;99.90
22337;DHT22;14992;50.844;4.418;2024-03-22T01:45:44;13.30;99.90
22337;DHT22;14992;50.844;4.418;2024-03-22T01:48:11;13.40;99.90
22337;DHT22;14992;50.844;4.418;2024-03-22T01:50:41;13.40;99.90
22337;DHT22;14992;50.844;4.418;2024-03-22T01:53:10;13.40;99.90
22337;DHT22;14992;50.844;4.418;2024-03-22T01:55:38;13.30;99.90
22337;DHT22;14992;50.844;4.418;2024-03-22T01:58:05;13.20;99.90
22337;DHT22;14992;50.844;4.418;2024-03-22T02:00:34;13.20;99.90
22337;DHT22;14992;50.844;4.418;2024-03-22T02:03:01;13.10;99.90
22337;DHT22;14992;50.844;4.418;2024-03-22T02:05:28;13.10;99.90
22337;DHT22;14992;50.844;4.418;2024-03-22T02:07:57;13.00;99.90
22337;DHT22;14992;50.844;4.418;2024-03-22T02:10:24;13.00;99.90
22337;DHT22;14992;50.844;4.418;2024-03-22T02:12:51;13.00;99.90
22337;DHT22;14992;50.844;4.418;2024-03-22T02:15:19;13.10;99.90
22337;DHT22;14992;50.844;4.418;2024-03-22T02:17:46;13.10;99.90
22337;DHT22;14992;50.844;4.418;2024-03-22T02:20:13;13.10;99.90
22337;DHT22;14992;50.844;4.418;2024-03-22T02:22:40;13.00;99.90
22337;DHT22;14992;50.844;4.418;2024-03-22T03:09:33;13.10;99.90
22337;DHT22;14992;50.844;4.418;2024-03-22T03:12:00;13.00;99.90
22337;DHT22;14992;50.844;4.418;2024-03-22T03:14:27;13.00;99.90
22337;DHT22;14992;50.844;4.418;2024-03-22T03:16:55;13.00;99.90
22337;DHT22;14992;50.844;4.418;2024-03-22T03:19:22;13.00;99.90
22337;DHT22;14992;50.844;4.418;2024-03-22T03:21:50;13.10;99.90
22337;DHT22;14992;50.844;4.418;2024-03-22T03:24:16;13.00;99.90
22337;DHT22;14992;50.844;4.418;2024-03-22T03:26:45;13.10;99.90
22337;DHT22;14992;50.844;4.418;2024-03-22T03:29:12;13.10;99.90
22337;DHT22;14992;50.844;4.418;2024-03-22T03:31:40;13.10;99.90
22337;DHT22;14992;50.844;4.418;2024-03-22T03:34:07;13.20;99.90
22337;DHT22;14992;50.844;4.418;2024-03-22T03:36:35;13.20;99.90
22337;DHT22;14992;50.844;4.418;2024-03-22T03:39:01;13.30;99.90
22337;DHT22;14992;50.844;4.418;2024-03-22T03:41:30;13.20;99.90
22337;DHT22;14992;50.844;4.418;2024-03-22T03:43:58;13.20;99.90
22337;DHT22;14992;50.844;4.418;2024-03-22T03:46:26;13.20;99.90
22337;DHT22;14992;50.844;4.418;2024-03-22T03:48:53;13.10;99.90
22337;DHT22;14992;50.844;4.418;2024-03-22T03:51:20;13.10;99.90
22337;DHT22;14992;50.844;4.418;2024-03-22T03:53:47;13.10;99.90
22337;DHT22;14992;50.844;4.418;2024-03-22T03:56:15;13.20;99.90
22337;DHT22;14992;50.844;4.418;2024-03-22T03:58:42;13.10;99.90
22337;DHT22;14992;50.844;4.418;2024-03-22T04:01:11;13.10;99.90
22337;DHT22;14992;50.844;4.418;2024-03-22T04:03:39;13.00;99.90
22337;DHT22;14992;50.844;4.418;2024-03-22T04:06:07;13.00;99.90
22337;DHT22;14992;50.844;4.418;2024-03-22T04:08:34;13.00;99.90
22337;DHT22;14992;50.844;4.418;2024-03-22T04:11:01;13.00;99.90
22337;DHT22;14992;50.844;4.418;2024-03-22T04:13:29;12.90;99.90
22337;DHT22;14992;50.844;4.418;2024-03-22T04:15:59;12.80;99.90
22337;DHT22;14992;50.844;4.418;2024-03-22T04:18:27;12.90;99.90
22337;DHT22;14992;50.844;4.418;2024-03-22T04:20:55;12.80;99.90
22337;DHT22;14992;50.844;4.418;2024-03-22T04:23:23;12.80;99.90
22337;DHT22;14992;50.844;4.418;2024-03-22T04:25:54;12.80;99.90
22337;DHT22;14992;50.844;4.418;2024-03-22T04:28:21;12.90;99.90
22337;DHT22;14992;50.844;4.418;2024-03-22T04:30:58;12.90;99.90
22337;DHT22;14992;50.844;4.418;2024-03-22T04:33:26;12.80;99.90
22337;DHT22;14992;50.844;4.418;2024-03-22T04:35:55;12.90;99.90
22337;DHT22;14992;50.844;4.418;2024-03-22T04:38:22;12.90;99.90
22337;DHT22;14992;50.844;4.418;2024-03-22T04:40:50;12.90;99.90
22337;DHT22;14992;50.844;4.418;2024-03-22T04:43:18;12.90;99.90
22337;DHT22;14992;50.844;4.418;2024-03-22T04:45:47;12.80;99.90
22337;DHT22;14992;50.844;4.418;2024-03-22T04:48:16;12.90;99.90
22337;DHT22;14992;50.844;4.418;2024-03-22T04:50:46;12.90;99.90
22337;DHT22;14992;50.844;4.418;2024-03-22T04:53:14;12.80;99.90
22337;DHT22;14992;50.844;4.418;2024-03-22T04:55:43;12.80;99.90
22337;DHT22;14992;50.844;4.418;2024-03-22T04:58:13;12.80;99.90
22337;DHT22;14992;50.844;4.418;2024-03-22T05:00:41;12.70;99.90
22337;DHT22;14992;50.844;4.418;2024-03-22T05:03:08;12.80;99.90
22337;DHT22;14992;50.844;4.418;2024-03-22T05:05:36;12.90;99.90
22337;DHT22;14992;50.844;4.418;2024-03-22T05:08:05;12.80;99.90
22337;DHT22;14992;50.844;4.418;2024-03-22T05:10:33;12.80;99.90
22337;DHT22;14992;50.844;4.418;2024-03-22T05:13:00;12.80;99.90
22337;DHT22;14992;50.844;4.418;2024-03-22T05:15:28;12.80;99.90
22337;DHT22;14992;50.844;4.418;2024-03-22T05:17:57;12.80;99.90
22337;DHT22;14992;50.844;4.418;2024-03-22T05:20:25;12.70;99.90
22337;DHT22;14992;50.844;4.418;2024-03-22T05:22:53;12.70;99.90
22337;DHT22;14992;50.844;4.418;2024-03-22T05:25:22;12.60;99.90
22337;DHT22;14992;50.844;4.418;2024-03-22T05:27:49;12.60;99.90
22337;DHT22;14992;50.844;4.418;2024-03-22T05:30:17;12.60;99.90
22337;DHT22;14992;50.844;4.418;2024-03-22T05:32:44;12.50;99.90
22337;DHT22;14992;50.844;4.418;2024-03-22T05:35:12;12.50;99.90
22337;DHT22;14992;50.844;4.418;2024-03-22T05:37:38;12.60;99.90
22337;DHT22;14992;50.844;4.418;2024-03-22T05:40:07;12.60;99.90
22337;DHT22;14992;50.844;4.418;2024-03-22T05:42:36;12.70;99.90
22337;DHT22;14992;50.844;4.418;2024-03-22T05:45:05;12.60;99.90
22337;DHT22;14992;50.844;4.418;2024-03-22T05:47:32;12.60;99.90
22337;DHT22;14992;50.844;4.418;2024-03-22T05:50:00;12.60;99.90
22337;DHT22;14992;50.844;4.418;2024-03-22T05:52:28;12.50;99.90
22337;DHT22;14992;50.844;4.418;2024-03-22T05:54:55;12.50;99.90
22337;DHT22;14992;50.844;4.418;2024-03-22T05:57:22;12.50;99.90
22337;DHT22;14992;50.844;4.418;2024-03-22T05:59:52;12.40;99.90
22337;DHT22;14992;50.844;4.418;2024-03-22T06:02:19;12.30;99.90
22337;DHT22;14992;50.844;4.418;2024-03-22T06:04:47;12.40;99.90
22337;DHT22;14992;50.844;4.418;2024-03-22T06:07:14;12.30;99.90
22337;DHT22;14992;50.844;4.418;2024-03-22T06:09:43;12.30;99.90
22337;DHT22;14992;50.844;4.418;2024-03-22T06:12:12;12.40;99.90
22337;DHT22;14992;50.844;4.418;2024-03-22T06:14:40;12.40;99.90
22337;DHT22;14992;50.844;4.418;2024-03-22T06:17:08;12.40;99.90
22337;DHT22;14992;50.844;4.418;2024-03-22T06:19:36;12.50;99.90
22337;DHT22;14992;50.844;4.418;2024-03-22T06:22:03;12.50;99.90
22337;DHT22;14992;50.844;4.418;2024-03-22T06:24:31;12.40;99.90
22337;DHT22;14992;50.844;4.418;2024-03-22T06:26:58;12.30;99.90
22337;DHT22;14992;50.844;4.418;2024-03-22T06:29:26;12.30;99.90
22337;DHT22;14992;50.844;4.418;2024-03-22T06:31:53;12.20;99.90
22337;DHT22;14992;50.844;4.418;2024-03-22T06:34:23;12.10;99.90
22337;DHT22;14992;50.844;4.418;2024-03-22T06:36:49;12.10;99.90
22337;DHT22;14992;50.844;4.418;2024-03-22T06:39:17;12.10;99.90
22337;DHT22;14992;50.844;4.418;2024-03-22T06:41:45;12.20;99.90
22337;DHT22;14992;50.844;4.418;2024-03-22T06:44:13;12.20;99.90
22337;DHT22;14992;50.844;4.418;2024-03-22T06:46:40;12.30;99.90
22337;DHT22;14992;50.844;4.418;2024-03-22T06:49:08;12.20;99.90
22337;DHT22;14992;50.844;4.418;2024-03-22T06:51:36;12.30;99.90
22337;DHT22;14992;50.844;4.418;2024-03-22T06:54:04;12.30;99.90
22337;DHT22;14992;50.844;4.418;2024-03-22T06:56:31;12.30;99.90
22337;DHT22;14992;50.844;4.418;2024-03-22T06:58:59;12.40;99.90
22337;DHT22;14992;50.844;4.418;2024-03-22T07:01:26;12.60;99.90
22337;DHT22;14992;50.844;4.418;2024-03-22T07:03:54;12.50;99.90
22337;DHT22;14992;50.844;4.418;2024-03-22T07:06:21;12.60;99.90
22337;DHT22;14992;50.844;4.418;2024-03-22T07:08:50;12.50;99.90
22337;DHT22;14992;50.844;4.418;2024-03-22T07:11:17;12.40;99.90
22337;DHT22;14992;50.844;4.418;2024-03-22T07:13:45;12.40;99.90
22337;DHT22;14992;50.844;4.418;2024-03-22T07:16:11;12.40;99.90
22337;DHT22;14992;50.844;4.418;2024-03-22T07:18:40;12.40;99.90
22337;DHT22;14992;50.844;4.418;2024-03-22T07:21:06;12.40;99.90
22337;DHT22;14992;50.844;4.418;2024-03-22T07:23:34;12.40;99.90
22337;DHT22;14992;50.844;4.418;2024-03-22T07:26:03;12.50;99.90
22337;DHT22;14992;50.844;4.418;2024-03-22T07:28:32;12.60;99.90
22337;DHT22;14992;50.844;4.418;2024-03-22T07:30:59;12.60;99.90
22337;DHT22;14992;50.844;4.418;2024-03-22T07:33:27;12.60;99.90
22337;DHT22;14992;50.844;4.418;2024-03-22T07:35:55;12.50;99.90
22337;DHT22;14992;50.844;4.418;2024-03-22T07:38:23;12.50;99.90
22337;DHT22;14992;50.844;4.418;2024-03-22T07:40:49;12.50;99.90
22337;DHT22;14992;50.844;4.418;2024-03-22T07:43:19;12.30;99.90
22337;DHT22;14992;50.844;4.418;2024-03-22T07:45:45;12.30;99.90
22337;DHT22;14992;50.844;4.418;2024-03-22T07:48:13;12.30;99.90
22337;DHT22;14992;50.844;4.418;2024-03-22T07:50:40;12.40;99.90
22337;DHT22;14992;50.844;4.418;2024-03-22T07:53:08;12.50;99.90
22337;DHT22;14992;50.844;4.418;2024-03-22T07:55:35;12.50;99.90
22337;DHT22;14992;50.844;4.418;2024-03-22T07:58:03;12.60;99.90
22337;DHT22;14992;50.844;4.418;2024-03-22T08:00:32;12.60;99.90
22337;DHT22;14992;50.844;4.418;2024-03-22T08:03:00;12.60;99.90
22337;DHT22;14992;50.844;4.418;2024-03-22T08:05:26;12.60;99.90
22337;DHT22;14992;50.844;4.418;2024-03-22T08:07:55;12.60;99.90
22337;DHT22;14992;50.844;4.418;2024-03-22T08:10:21;12.60;99.90
22337;DHT22;14992;50.844;4.418;2024-03-22T08:12:49;12.60;99.90
22337;DHT22;14992;50.844;4.418;2024-03-22T08:15:16;12.70;99.90
22337;DHT22;14992;50.844;4.418;2024-03-22T08:17:46;12.70;99.90
22337;DHT22;14992;50.844;4.418;2024-03-22T08:20:12;12.70;99.90
22337;DHT22;14992;50.844;4.418;2024-03-22T08:22:40;12.70;99.90
22337;DHT22;14992;50.844;4.418;2024-03-22T08:25:07;12.70;99.90
22337;DHT22;14992;50.844;4.418;2024-03-22T08:27:35;12.70;99.90
22337;DHT22;14992;50.844;4.418;2024-03-22T08:30:02;12.80;99.90
22337;DHT22;14992;50.844;4.418;2024-03-22T08:32:31;13.00;99.90
22337;DHT22;14992;50.844;4.418;2024-03-22T08:34:59;13.30;99.90
22337;DHT22;14992;50.844;4.418;2024-03-22T08:37:27;13.10;99.90
22337;DHT22;14992;50.844;4.418;2024-03-22T08:39:54;13.10;99.90
22337;DHT22;14992;50.844;4.418;2024-03-22T08:42:22;13.20;99.90
22337;DHT22;14992;50.844;4.418;2024-03-22T08:44:49;13.30;99.90
22337;DHT22;14992;50.844;4.418;2024-03-22T08:47:16;13.40;99.90
22337;DHT22;14992;50.844;4.418;2024-03-22T08:49:43;13.40;99.90
22337;DHT22;14992;50.844;4.418;2024-03-22T08:52:13;13.30;99.90
22337;DHT22;14992;50.844;4.418;2024-03-22T08:54:40;13.40;99.90
22337;DHT22;14992;50.844;4.418;2024-03-22T08:57:08;13.40;99.90
22337;DHT22;14992;50.844;4.418;2024-03-22T08:59:35;13.40;99.90
22337;DHT22;14992;50.844;4.418;2024-03-22T09:02:04;13.50;99.90
22337;DHT22;14992;50.844;4.418;2024-03-22T09:04:32;13.70;99.90
22337;DHT22;14992;50.844;4.418;2024-03-22T09:06:59;13.90;99.90
22337;DHT22;14992;50.844;4.418;2024-03-22T09:09:27;13.90;99.90
22337;DHT22;14992;50.844;4.418;2024-03-22T09:11:55;14.00;99.90
22337;DHT22;14992;50.844;4.418;2024-03-22T09:14:22;14.00;99.90
22337;DHT22;14992;50.844;4.418;2024-03-22T09:16:50;13.80;99.90
22337;DHT22;14992;50.844;4.418;2024-03-22T09:19:17;13.70;99.90
22337;DHT22;14992;50.844;4.418;2024-03-22T09:21:44;13.60;99.90
22337;DHT22;14992;50.844;4.418;2024-03-22T09:24:11;13.70;99.90
22337;DHT22;14992;50.844;4.418;2024-03-22T09:26:40;13.70;99.90
22337;DHT22;14992;50.844;4.418;2024-03-22T09:29:08;13.90;99.90
22337;DHT22;14992;50.844;4.418;2024-03-22T09:31:35;13.90;99.90
22337;DHT22;14992;50.844;4.418;2024-03-22T09:34:02;13.80;99.90
22337;DHT22;14992;50.844;4.418;2024-03-22T09:36:30;13.70;99.90
22337;DHT22;14992;50.844;4.418;2024-03-22T09:39:00;13.70;99.90
22337;DHT22;14992;50.844;4.418;2024-03-22T09:41:31;13.70;99.90
22337;DHT22;14992;50.844;4.418;2024-03-22T09:44:02;13.70;99.90
22337;DHT22;14992;50.844;4.418;2024-03-22T09:46:31;13.80;99.90
22337;DHT22;14992;50.844;4.418;2024-03-22T09:48:58;14.00;99.90
22337;DHT22;14992;50.844;4.418;2024-03-22T09:51:27;14.20;99.90
22337;DHT22;14992;50.844;4.418;2024-03-22T09:53:55;14.10;99.90
22337;DHT22;14992;50.844;4.418;2024-03-22T09:56:24;14.20;99.90
22337;DHT22;14992;50.844;4.418;2024-03-22T09:58:53;14.30;99.90
22337;DHT22;14992;50.844;4.418;2024-03-22T10:01:23;14.20;99.90
22337;DHT22;14992;50.844;4.418;2024-03-22T10:03:51;14.30;99.90
22337;DHT22;14992;50.844;4.418;2024-03-22T10:06:19;14.40;99.90
22337;DHT22;14992;50.844;4.418;2024-03-22T10:08:46;14.40;99.90
22337;DHT22;14992;50.844;4.418;2024-03-22T10:11:14;14.50;99.90
22337;DHT22;14992;50.844;4.418;2024-03-22T10:13:41;14.60;99.90
22337;DHT22;14992;50.844;4.418;2024-03-22T10:16:09;14.50;99.90
22337;DHT22;14992;50.844;4.418;2024-03-22T10:18:37;14.50;99.90
22337;DHT22;14992;50.844;4.418;2024-03-22T10:21:05;14.60;99.90
22337;DHT22;14992;50.844;4.418;2024-03-22T10:23:32;14.50;99.90
22337;DHT22;14992;50.844;4.418;2024-03-22T10:26:00;14.60;99.90
22337;DHT22;14992;50.844;4.418;2024-03-22T10:28:27;14.50;99.90
22337;DHT22;14992;50.844;4.418;2024-03-22T10:30:55;14.60;99.90
22337;DHT22;14992;50.844;4.418;2024-03-22T10:33:22;14.70;99.90
22337;DHT22;14992;50.844;4.418;2024-03-22T10:35:53;14.50;99.90
22337;DHT22;14992;50.844;4.418;2024-03-22T10:38:20;14.40;99.90
22337;DHT22;14992;50.844;4.418;2024-03-22T10:40:49;14.60;99.90
22337;DHT22;14992;50.844;4.418;2024-03-22T10:43:16;14.60;99.90
22337;DHT22;14992;50.844;4.418;2024-03-22T10:45:47;14.70;99.90
22337;DHT22;14992;50.844;4.418;2024-03-22T10:48:15;15.00;99.90
22337;DHT22;14992;50.844;4.418;2024-03-22T10:50:45;15.20;99.90
22337;DHT22;14992;50.844;4.418;2024-03-22T10:53:17;15.20;99.90
22337;DHT22;14992;50.844;4.418;2024-03-22T10:55:47;15.30;99.90
22337;DHT22;14992;50.844;4.418;2024-03-22T10:58:15;15.30;99.90
22337;DHT22;14992;50.844;4.418;2024-03-22T11:00:43;15.50;99.90
22337;DHT22;14992;50.844;4.418;2024-03-22T11:03:12;15.40;99.90
22337;DHT22;14992;50.844;4.418;2024-03-22T11:05:47;15.50;99.90
22337;DHT22;14992;50.844;4.418;2024-03-22T11:08:23;15.50;99.90
22337;DHT22;14992;50.844;4.418;2024-03-22T11:10:52;15.50;99.90
22337;DHT22;14992;50.844;4.418;2024-03-22T11:13:21;15.50;99.90
22337;DHT22;14992;50.844;4.418;2024-03-22T11:15:49;15.60;99.90
22337;DHT22;14992;50.844;4.418;2024-03-22T11:18:16;15.70;99.90
22337;DHT22;14992;50.844;4.418;2024-03-22T11:20:44;15.90;99.90
22337;DHT22;14992;50.844;4.418;2024-03-22T11:23:13;16.10;99.90
22337;DHT22;14992;50.844;4.418;2024-03-22T11:25:42;16.00;99.90
22337;DHT22;14992;50.844;4.418;2024-03-22T11:28:09;16.10;99.90
22337;DHT22;14992;50.844;4.418;2024-03-22T11:30:37;16.00;99.90
22337;DHT22;14992;50.844;4.418;2024-03-22T11:33:05;16.00;99.90
22337;DHT22;14992;50.844;4.418;2024-03-22T11:35:33;15.60;99.90
22337;DHT22;14992;50.844;4.418;2024-03-22T11:38:00;15.40;99.90
22337;DHT22;14992;50.844;4.418;2024-03-22T11:40:31;15.30;99.90
22337;DHT22;14992;50.844;4.418;2024-03-22T11:43:02;15.00;99.90
22337;DHT22;14992;50.844;4.418;2024-03-22T11:45:31;15.00;99.90
22337;DHT22;14992;50.844;4.418;2024-03-22T11:48:02;14.90;99.90
22337;DHT22;14992;50.844;4.418;2024-03-22T11:50:30;14.70;99.90
22337;DHT22;14992;50.844;4.418;2024-03-22T11:52:57;14.50;99.90
22337;DHT22;14992;50.844;4.418;2024-03-22T11:55:27;14.50;99.90
22337;DHT22;14992;50.844;4.418;2024-03-22T11:57:56;14.60;99.90
22337;DHT22;14992;50.844;4.418;2024-03-22T12:00:26;14.70;99.90
22337;DHT22;14992;50.844;4.418;2024-03-22T12:02:54;14.80;99.90
22337;DHT22;14992;50.844;4.418;2024-03-22T12:05:22;15.10;99.90
22337;DHT22;14992;50.844;4.418;2024-03-22T12:07:51;15.10;99.90
22337;DHT22;14992;50.844;4.418;2024-03-22T12:10:18;15.10;99.90
22337;DHT22;14992;50.844;4.418;2024-03-22T12:12:46;15.10;99.90
22337;DHT22;14992;50.844;4.418;2024-03-22T12:15:13;15.10;99.90
22337;DHT22;14992;50.844;4.418;2024-03-22T12:17:42;15.10;99.90
22337;DHT22;14992;50.844;4.418;2024-03-22T12:20:10;15.00;99.90
22337;DHT22;14992;50.844;4.418;2024-03-22T12:22:38;15.00;99.90
22337;DHT22;14992;50.844;4.418;2024-03-22T12:25:05;14.90;99.90
22337;DHT22;14992;50.844;4.418;2024-03-22T12:27:33;14.90;99.90
22337;DHT22;14992;50.844;4.418;2024-03-22T12:30:00;15.00;99.90
22337;DHT22;14992;50.844;4.418;2024-03-22T12:32:27;15.00;99.90
22337;DHT22;14992;50.844;4.418;2024-03-22T12:34:57;15.00;99.90
22337;DHT22;14992;50.844;4.418;2024-03-22T12:37:25;15.00;99.90
22337;DHT22;14992;50.844;4.418;2024-03-22T12:39:51;15.00;99.90
22337;DHT22;14992;50.844;4.418;2024-03-22T12:42:20;15.00;99.90
22337;DHT22;14992;50.844;4.418;2024-03-22T12:44:47;14.90;99.90
22337;DHT22;14992;50.844;4.418;2024-03-22T12:47:14;14.70;99.90
22337;DHT22;14992;50.844;4.418;2024-03-22T12:49:41;14.40;99.90
22337;DHT22;14992;50.844;4.418;2024-03-22T12:52:10;14.30;99.90
22337;DHT22;14992;50.844;4.418;2024-03-22T12:54:37;14.20;99.90
22337;DHT22;14992;50.844;4.418;2024-03-22T12:57:05;14.20;99.90
22337;DHT22;14992;50.844;4.418;2024-03-22T12:59:33;14.10;99.90
22337;DHT22;14992;50.844;4.418;2024-03-22T13:02:00;14.10;99.90
22337;DHT22;14992;50.844;4.418;2024-03-22T13:04:28;14.20;99.90
22337;DHT22;14992;50.844;4.418;2024-03-22T13:06:55;14.20;99.90
22337;DHT22;14992;50.844;4.418;2024-03-22T13:09:24;14.20;99.90
22337;DHT22;14992;50.844;4.418;2024-03-22T13:11:51;14.30;99.90
22337;DHT22;14992;50.844;4.418;2024-03-22T13:14:18;14.50;99.90
22337;DHT22;14992;50.844;4.418;2024-03-22T13:16:46;14.70;99.90
22337;DHT22;14992;50.844;4.418;2024-03-22T13:19:13;14.50;99.90
22337;DHT22;14992;50.844;4.418;2024-03-22T13:21:41;14.50;99.90
22337;DHT22;14992;50.844;4.418;2024-03-22T13:24:10;14.50;99.90
22337;DHT22;14992;50.844;4.418;2024-03-22T13:26:41;14.50;99.90
22337;DHT22;14992;50.844;4.418;2024-03-22T13:29:07;14.40;99.90
22337;DHT22;14992;50.844;4.418;2024-03-22T13:31:35;14.30;99.90
22337;DHT22;14992;50.844;4.418;2024-03-22T13:34:02;14.30;99.90
22337;DHT22;14992;50.844;4.418;2024-03-22T13:36:31;14.40;99.90
22337;DHT22;14992;50.844;4.418;2024-03-22T13:38:59;14.50;99.90
22337;DHT22;14992;50.844;4.418;2024-03-22T13:41:27;14.60;99.90
22337;DHT22;14992;50.844;4.418;2024-03-22T13:43:55;14.60;99.90
22337;DHT22;14992;50.844;4.418;2024-03-22T13:46:23;14.50;99.90
22337;DHT22;14992;50.844;4.418;2024-03-22T13:48:52;14.50;99.90
22337;DHT22;14992;50.844;4.418;2024-03-22T13:51:21;14.50;99.90
22337;DHT22;14992;50.844;4.418;2024-03-22T13:53:48;14.40;99.90
22337;DHT22;14992;50.844;4.418;2024-03-22T13:56:16;14.40;99.90
22337;DHT22;14992;50.844;4.418;2024-03-22T13:58:43;14.20;99.90
22337;DHT22;14992;50.844;4.418;2024-03-22T14:01:12;14.20;99.90
22337;DHT22;14992;50.844;4.418;2024-03-22T14:03:39;14.10;99.90
22337;DHT22;14992;50.844;4.418;2024-03-22T14:06:06;14.10;99.90
22337;DHT22;14992;50.844;4.418;2024-03-22T14:08:33;14.00;99.90
22337;DHT22;14992;50.844;4.418;2024-03-22T14:11:01;14.10;99.90
22337;DHT22;14992;50.844;4.418;2024-03-22T14:13:28;14.10;99.90
22337;DHT22;14992;50.844;4.418;2024-03-22T14:15:56;14.30;99.90
22337;DHT22;14992;50.844;4.418;2024-03-22T14:18:24;14.40;99.90
22337;DHT22;14992;50.844;4.418;2024-03-22T14:20:52;14.50;99.90
22337;DHT22;14992;50.844;4.418;2024-03-22T14:23:19;14.40;99.90
22337;DHT22;14992;50.844;4.418;2024-03-22T14:25:47;14.30;99.90
22337;DHT22;14992;50.844;4.418;2024-03-22T14:28:15;14.30;99.90
22337;DHT22;14992;50.844;4.418;2024-03-22T14:30:43;14.20;99.90
22337;DHT22;14992;50.844;4.418;2024-03-22T14:33:09;14.20;99.90
22337;DHT22;14992;50.844;4.418;2024-03-22T14:35:39;14.10;99.90
22337;DHT22;14992;50.844;4.418;2024-03-22T14:38:05;14.10;99.90
22337;DHT22;14992;50.844;4.418;2024-03-22T14:40:33;14.10;99.90
22337;DHT22;14992;50.844;4.418;2024-03-22T14:43:03;14.00;99.90
22337;DHT22;14992;50.844;4.418;2024-03-22T14:45:31;14.00;99.90
22337;DHT22;14992;50.844;4.418;2024-03-22T14:47:58;13.80;99.90
22337;DHT22;14992;50.844;4.418;2024-03-22T14:50:26;13.90;99.90
22337;DHT22;14992;50.844;4.418;2024-03-22T14:52:54;14.00;99.90
22337;DHT22;14992;50.844;4.418;2024-03-22T14:55:22;14.10;99.90
22337;DHT22;14992;50.844;4.418;2024-03-22T14:57:49;14.00;99.90
22337;DHT22;14992;50.844;4.418;2024-03-22T15:00:17;13.90;99.90
22337;DHT22;14992;50.844;4.418;2024-03-22T15:02:44;14.00;99.90
22337;DHT22;14992;50.844;4.418;2024-03-22T15:05:13;14.20;99.90
22337;DHT22;14992;50.844;4.418;2024-03-22T15:07:40;14.30;99.90
22337;DHT22;14992;50.844;4.418;2024-03-22T15:10:10;14.10;99.90
22337;DHT22;14992;50.844;4.418;2024-03-22T15:12:37;14.00;99.90
22337;DHT22;14992;50.844;4.418;2024-03-22T15:15:06;13.80;99.90
22337;DHT22;14992;50.844;4.418;2024-03-22T15:17:34;13.70;99.90
22337;DHT22;14992;50.844;4.418;2024-03-22T15:20:04;13.50;99.90
22337;DHT22;14992;50.844;4.418;2024-03-22T15:22:31;13.70;99.90
22337;DHT22;14992;50.844;4.418;2024-03-22T15:24:58;13.40;99.90
22337;DHT22;14992;50.844;4.418;2024-03-22T15:27:27;13.30;99.90
22337;DHT22;14992;50.844;4.418;2024-03-22T15:29:55;13.10;99.90
22337;DHT22;14992;50.844;4.418;2024-03-22T15:32:22;13.00;99.90
22337;DHT22;14992;50.844;4.418;2024-03-22T15:34:52;12.90;99.90
22337;DHT22;14992;50.844;4.418;2024-03-22T15:37:19;12.90;99.90
22337;DHT22;14992;50.844;4.418;2024-03-22T15:39:47;13.10;99.90
22337;DHT22;14992;50.844;4.418;2024-03-22T15:42:14;13.10;99.90
22337;DHT22;14992;50.844;4.418;2024-03-22T15:44:43;13.10;99.90
22337;DHT22;14992;50.844;4.418;2024-03-22T15:47:10;13.00;99.90
22337;DHT22;14992;50.844;4.418;2024-03-22T15:49:38;13.10;99.90
22337;DHT22;14992;50.844;4.418;2024-03-22T15:52:05;13.20;99.90
22337;DHT22;14992;50.844;4.418;2024-03-22T15:54:33;13.20;99.90
22337;DHT22;14992;50.844;4.418;2024-03-22T15:57:00;13.30;99.90
22337;DHT22;14992;50.844;4.418;2024-03-22T15:59:27;13.40;99.90
22337;DHT22;14992;50.844;4.418;2024-03-22T16:01:56;13.40;99.90
22337;DHT22;14992;50.844;4.418;2024-03-22T16:04:24;13.40;99.90
22337;DHT22;14992;50.844;4.418;2024-03-22T16:06:51;13.30;99.90
22337;DHT22;14992;50.844;4.418;2024-03-22T16:09:19;13.40;99.90
22337;DHT22;14992;50.844;4.418;2024-03-22T16:11:47;13.40;99.90
22337;DHT22;14992;50.844;4.418;2024-03-22T16:14:15;13.40;99.90
22337;DHT22;14992;50.844;4.418;2024-03-22T16:16:41;13.40;99.90
22337;DHT22;14992;50.844;4.418;2024-03-22T16:19:10;13.10;99.90